sensor_id;sensor_type;location;lat;lon;timestamp;P1;durP1;ratioP1;P2;durP2;ratioP2
49384;SDS011;36795;45.028;38.968;2022-08-19T00:00:07;24.30;;;10.77;;
49384;SDS011;36795;45.028;38.968;2022-08-19T00:02:55;23.92;;;10.35;;
49384;SDS011;36795;45.028;38.968;2022-08-19T00:05:41;23.73;;;9.48;;
49384;SDS011;36795;45.028;38.968;2022-08-19T00:08:28;26.02;;;9.68;;
49384;SDS011;36795;45.028;38.968;2022-08-19T00:11:13;27.48;;;9.80;;
49384;SDS011;36795;45.028;38.968;2022-08-19T00:14:00;23.73;;;10.23;;
49384;SDS011;36795;45.028;38.968;2022-08-19T00:16:46;24.12;;;10.48;;
49384;SDS011;36795;45.028;38.968;2022-08-19T00:19:34;23.92;;;10.30;;
49384;SDS011;36795;45.028;38.968;2022-08-19T00:22:21;22.80;;;10.07;;
49384;SDS011;36795;45.028;38.968;2022-08-19T00:25:07;24.45;;;10.57;;
49384;SDS011;36795;45.028;38.968;2022-08-19T00:27:53;22.75;;;9.95;;
49384;SDS011;36795;45.028;38.968;2022-08-19T00:30:40;23.73;;;10.57;;
49384;SDS011;36795;45.028;38.968;2022-08-19T00:33:25;25.30;;;10.48;;
49384;SDS011;36795;45.028;38.968;2022-08-19T00:36:12;23.50;;;10.07;;
49384;SDS011;36795;45.028;38.968;2022-08-19T00:38:58;22.30;;;10.20;;
49384;SDS011;36795;45.028;38.968;2022-08-19T00:41:45;23.10;;;10.10;;
49384;SDS011;36795;45.028;38.968;2022-08-19T00:44:35;24.77;;;10.93;;
49384;SDS011;36795;45.028;38.968;2022-08-19T00:47:21;26.00;;;10.57;;
49384;SDS011;36795;45.028;38.968;2022-08-19T00:50:07;22.87;;;10.15;;
49384;SDS011;36795;45.028;38.968;2022-08-19T00:52:55;23.12;;;10.10;;
49384;SDS011;36795;45.028;38.968;2022-08-19T00:55:44;22.92;;;10.57;;
49384;SDS011;36795;45.028;38.968;2022-08-19T00:58:33;24.73;;;11.12;;
49384;SDS011;36795;45.028;38.968;2022-08-19T01:01:20;25.58;;;10.80;;
49384;SDS011;36795;45.028;38.968;2022-08-19T01:04:06;24.85;;;10.10;;
49384;SDS011;36795;45.028;38.968;2022-08-19T01:06:52;22.20;;;11.00;;
49384;SDS011;36795;45.028;38.968;2022-08-19T01:09:39;23.70;;;10.98;;
49384;SDS011;36795;45.028;38.968;2022-08-19T01:12:25;26.08;;;10.70;;
49384;SDS011;36795;45.028;38.968;2022-08-19T01:15:12;22.40;;;11.00;;
49384;SDS011;36795;45.028;38.968;2022-08-19T01:18:04;22.67;;;10.25;;
49384;SDS011;36795;45.028;38.968;2022-08-19T01:20:54;23.98;;;10.55;;
49384;SDS011;36795;45.028;38.968;2022-08-19T01:23:43;24.83;;;10.48;;
49384;SDS011;36795;45.028;38.968;2022-08-19T01:26:30;25.95;;;11.20;;
49384;SDS011;36795;45.028;38.968;2022-08-19T01:29:16;24.45;;;12.50;;
49384;SDS011;36795;45.028;38.968;2022-08-19T01:32:02;26.35;;;12.98;;
49384;SDS011;36795;45.028;38.968;2022-08-19T01:34:48;26.37;;;13.10;;
49384;SDS011;36795;45.028;38.968;2022-08-19T01:37:45;26.98;;;13.07;;
49384;SDS011;36795;45.028;38.968;2022-08-19T01:43:24;27.60;;;13.70;;
49384;SDS011;36795;45.028;38.968;2022-08-19T01:46:11;28.38;;;13.68;;
49384;SDS011;36795;45.028;38.968;2022-08-19T01:48:58;31.85;;;14.05;;
49384;SDS011;36795;45.028;38.968;2022-08-19T01:51:44;31.00;;;14.77;;
49384;SDS011;36795;45.028;38.968;2022-08-19T01:54:31;27.50;;;13.82;;
49384;SDS011;36795;45.028;38.968;2022-08-19T01:57:18;27.27;;;13.10;;
49384;SDS011;36795;45.028;38.968;2022-08-19T02:00:06;26.25;;;14.18;;
49384;SDS011;36795;45.028;38.968;2022-08-19T02:02:55;30.98;;;14.80;;
49384;SDS011;36795;45.028;38.968;2022-08-19T02:05:42;26.10;;;14.63;;
49384;SDS011;36795;45.028;38.968;2022-08-19T02:08:31;28.90;;;15.02;;
49384;SDS011;36795;45.028;38.968;2022-08-19T02:11:23;28.45;;;13.65;;
49384;SDS011;36795;45.028;38.968;2022-08-19T02:14:10;27.20;;;14.02;;
49384;SDS011;36795;45.028;38.968;2022-08-19T02:16:57;27.02;;;13.77;;
49384;SDS011;36795;45.028;38.968;2022-08-19T02:19:42;30.55;;;15.52;;
49384;SDS011;36795;45.028;38.968;2022-08-19T02:22:28;29.70;;;14.98;;
49384;SDS011;36795;45.028;38.968;2022-08-19T02:25:14;31.25;;;14.40;;
49384;SDS011;36795;45.028;38.968;2022-08-19T02:28:00;28.20;;;14.45;;
49384;SDS011;36795;45.028;38.968;2022-08-19T02:30:47;31.48;;;14.98;;
49384;SDS011;36795;45.028;38.968;2022-08-19T02:33:33;28.85;;;13.65;;
49384;SDS011;36795;45.028;38.968;2022-08-19T02:36:19;26.23;;;13.57;;
49384;SDS011;36795;45.028;38.968;2022-08-19T02:39:05;28.85;;;14.68;;
49384;SDS011;36795;45.028;38.968;2022-08-19T02:41:51;27.10;;;13.18;;
49384;SDS011;36795;45.028;38.968;2022-08-19T02:44:38;31.17;;;13.52;;
49384;SDS011;36795;45.028;38.968;2022-08-19T02:47:23;29.73;;;11.77;;
49384;SDS011;36795;45.028;38.968;2022-08-19T02:50:10;26.87;;;10.93;;
49384;SDS011;36795;45.028;38.968;2022-08-19T02:52:56;24.67;;;9.35;;
49384;SDS011;36795;45.028;38.968;2022-08-19T02:55:44;29.87;;;9.88;;
49384;SDS011;36795;45.028;38.968;2022-08-19T02:58:31;24.40;;;9.25;;
49384;SDS011;36795;45.028;38.968;2022-08-19T03:01:22;28.25;;;8.52;;
49384;SDS011;36795;45.028;38.968;2022-08-19T03:04:10;25.55;;;11.05;;
49384;SDS011;36795;45.028;38.968;2022-08-19T03:06:58;24.75;;;9.13;;
49384;SDS011;36795;45.028;38.968;2022-08-19T03:09:44;27.17;;;9.55;;
49384;SDS011;36795;45.028;38.968;2022-08-19T03:12:31;24.67;;;8.88;;
49384;SDS011;36795;45.028;38.968;2022-08-19T03:15:19;25.02;;;9.65;;
49384;SDS011;36795;45.028;38.968;2022-08-19T03:18:06;23.98;;;8.85;;
49384;SDS011;36795;45.028;38.968;2022-08-19T03:20:53;26.73;;;9.93;;
49384;SDS011;36795;45.028;38.968;2022-08-19T03:23:39;26.62;;;9.38;;
49384;SDS011;36795;45.028;38.968;2022-08-19T03:26:26;27.85;;;9.68;;
49384;SDS011;36795;45.028;38.968;2022-08-19T03:29:13;30.73;;;9.40;;
49384;SDS011;36795;45.028;38.968;2022-08-19T03:32:02;34.25;;;11.02;;
49384;SDS011;36795;45.028;38.968;2022-08-19T03:34:50;28.50;;;10.23;;
49384;SDS011;36795;45.028;38.968;2022-08-19T03:37:37;27.35;;;8.98;;
49384;SDS011;36795;45.028;38.968;2022-08-19T03:40:23;26.65;;;9.43;;
49384;SDS011;36795;45.028;38.968;2022-08-19T03:43:10;28.58;;;9.80;;
49384;SDS011;36795;45.028;38.968;2022-08-19T03:46:00;26.25;;;9.48;;
49384;SDS011;36795;45.028;38.968;2022-08-19T03:48:50;26.80;;;8.73;;
49384;SDS011;36795;45.028;38.968;2022-08-19T03:51:39;23.33;;;8.73;;
49384;SDS011;36795;45.028;38.968;2022-08-19T03:54:26;25.17;;;9.38;;
49384;SDS011;36795;45.028;38.968;2022-08-19T03:57:13;24.23;;;8.45;;
49384;SDS011;36795;45.028;38.968;2022-08-19T03:59:58;22.30;;;7.55;;
49384;SDS011;36795;45.028;38.968;2022-08-19T04:02:45;22.15;;;8.35;;
49384;SDS011;36795;45.028;38.968;2022-08-19T04:05:31;23.87;;;8.63;;
49384;SDS011;36795;45.028;38.968;2022-08-19T04:08:17;25.08;;;8.48;;
49384;SDS011;36795;45.028;38.968;2022-08-19T04:11:09;21.33;;;8.05;;
49384;SDS011;36795;45.028;38.968;2022-08-19T04:13:56;27.23;;;8.18;;
49384;SDS011;36795;45.028;38.968;2022-08-19T04:16:43;22.77;;;7.78;;
49384;SDS011;36795;45.028;38.968;2022-08-19T04:19:30;21.42;;;7.95;;
49384;SDS011;36795;45.028;38.968;2022-08-19T04:22:17;22.48;;;7.40;;
49384;SDS011;36795;45.028;38.968;2022-08-19T04:25:03;23.62;;;8.10;;
49384;SDS011;36795;45.028;38.968;2022-08-19T04:27:50;21.73;;;7.90;;
49384;SDS011;36795;45.028;38.968;2022-08-19T04:30:40;22.05;;;8.23;;
49384;SDS011;36795;45.028;38.968;2022-08-19T04:33:30;23.33;;;7.07;;
49384;SDS011;36795;45.028;38.968;2022-08-19T04:36:17;19.62;;;7.25;;
49384;SDS011;36795;45.028;38.968;2022-08-19T04:39:08;28.62;;;15.63;;
49384;SDS011;36795;45.028;38.968;2022-08-19T04:41:55;22.23;;;6.78;;
49384;SDS011;36795;45.028;38.968;2022-08-19T04:45:00;21.87;;;6.75;;
49384;SDS011;36795;45.028;38.968;2022-08-19T04:47:47;21.48;;;6.68;;
49384;SDS011;36795;45.028;38.968;2022-08-19T04:50:34;20.42;;;6.55;;
49384;SDS011;36795;45.028;38.968;2022-08-19T04:53:20;22.15;;;6.75;;
49384;SDS011;36795;45.028;38.968;2022-08-19T04:56:08;21.05;;;6.25;;
49384;SDS011;36795;45.028;38.968;2022-08-19T04:58:56;21.20;;;6.72;;
49384;SDS011;36795;45.028;38.968;2022-08-19T05:01:43;21.30;;;6.75;;
49384;SDS011;36795;45.028;38.968;2022-08-19T05:04:29;19.15;;;6.93;;
49384;SDS011;36795;45.028;38.968;2022-08-19T05:07:18;20.25;;;6.90;;
49384;SDS011;36795;45.028;38.968;2022-08-19T05:10:04;20.17;;;6.90;;
49384;SDS011;36795;45.028;38.968;2022-08-19T05:12:51;19.20;;;6.68;;
49384;SDS011;36795;45.028;38.968;2022-08-19T05:15:37;19.33;;;6.87;;
49384;SDS011;36795;45.028;38.968;2022-08-19T05:18:23;24.35;;;7.25;;
49384;SDS011;36795;45.028;38.968;2022-08-19T05:21:28;46.72;;;35.25;;
49384;SDS011;36795;45.028;38.968;2022-08-19T05:24:33;22.67;;;7.65;;
49384;SDS011;36795;45.028;38.968;2022-08-19T05:27:19;20.00;;;6.35;;
49384;SDS011;36795;45.028;38.968;2022-08-19T05:30:06;27.20;;;7.30;;
49384;SDS011;36795;45.028;38.968;2022-08-19T05:32:52;20.33;;;6.32;;
49384;SDS011;36795;45.028;38.968;2022-08-19T05:35:39;20.85;;;5.68;;
49384;SDS011;36795;45.028;38.968;2022-08-19T05:38:26;19.05;;;6.10;;
49384;SDS011;36795;45.028;38.968;2022-08-19T05:41:13;17.98;;;5.18;;
49384;SDS011;36795;45.028;38.968;2022-08-19T05:44:03;17.83;;;6.12;;
49384;SDS011;36795;45.028;38.968;2022-08-19T05:46:54;20.80;;;6.35;;
49384;SDS011;36795;45.028;38.968;2022-08-19T05:49:40;24.45;;;7.70;;
49384;SDS011;36795;45.028;38.968;2022-08-19T05:52:27;20.17;;;5.87;;
49384;SDS011;36795;45.028;38.968;2022-08-19T05:55:13;18.20;;;6.32;;
49384;SDS011;36795;45.028;38.968;2022-08-19T05:57:59;22.83;;;6.93;;
49384;SDS011;36795;45.028;38.968;2022-08-19T06:00:46;23.08;;;6.50;;
49384;SDS011;36795;45.028;38.968;2022-08-19T06:03:32;17.52;;;5.70;;
49384;SDS011;36795;45.028;38.968;2022-08-19T06:06:21;17.75;;;5.70;;
49384;SDS011;36795;45.028;38.968;2022-08-19T06:09:07;19.27;;;6.30;;
49384;SDS011;36795;45.028;38.968;2022-08-19T06:11:56;19.98;;;6.10;;
49384;SDS011;36795;45.028;38.968;2022-08-19T06:14:44;21.25;;;6.22;;
49384;SDS011;36795;45.028;38.968;2022-08-19T06:17:30;22.55;;;6.05;;
49384;SDS011;36795;45.028;38.968;2022-08-19T06:20:17;23.02;;;6.85;;
49384;SDS011;36795;45.028;38.968;2022-08-19T06:23:04;18.15;;;6.20;;
49384;SDS011;36795;45.028;38.968;2022-08-19T06:25:50;19.23;;;5.55;;
49384;SDS011;36795;45.028;38.968;2022-08-19T06:28:36;20.20;;;6.03;;
49384;SDS011;36795;45.028;38.968;2022-08-19T06:31:26;21.17;;;5.72;;
49384;SDS011;36795;45.028;38.968;2022-08-19T06:34:14;22.48;;;7.20;;
49384;SDS011;36795;45.028;38.968;2022-08-19T06:37:00;21.30;;;6.82;;
49384;SDS011;36795;45.028;38.968;2022-08-19T06:39:47;18.58;;;5.82;;
49384;SDS011;36795;45.028;38.968;2022-08-19T06:42:34;25.55;;;6.40;;
49384;SDS011;36795;45.028;38.968;2022-08-19T06:45:23;21.85;;;9.02;;
49384;SDS011;36795;45.028;38.968;2022-08-19T06:48:10;18.33;;;6.47;;
49384;SDS011;36795;45.028;38.968;2022-08-19T06:50:55;20.65;;;6.20;;
49384;SDS011;36795;45.028;38.968;2022-08-19T06:53:41;23.15;;;6.47;;
49384;SDS011;36795;45.028;38.968;2022-08-19T06:56:32;21.37;;;6.22;;
49384;SDS011;36795;45.028;38.968;2022-08-19T06:59:20;21.60;;;6.40;;
49384;SDS011;36795;45.028;38.968;2022-08-19T07:02:07;21.67;;;6.75;;
49384;SDS011;36795;45.028;38.968;2022-08-19T07:04:54;21.33;;;6.12;;
49384;SDS011;36795;45.028;38.968;2022-08-19T07:07:43;19.02;;;6.07;;
49384;SDS011;36795;45.028;38.968;2022-08-19T07:10:29;21.75;;;6.82;;
49384;SDS011;36795;45.028;38.968;2022-08-19T07:13:17;20.92;;;6.07;;
49384;SDS011;36795;45.028;38.968;2022-08-19T07:16:05;18.98;;;6.15;;
49384;SDS011;36795;45.028;38.968;2022-08-19T07:18:52;19.27;;;6.40;;
49384;SDS011;36795;45.028;38.968;2022-08-19T07:21:38;18.37;;;5.87;;
49384;SDS011;36795;45.028;38.968;2022-08-19T07:24:25;20.42;;;6.12;;
49384;SDS011;36795;45.028;38.968;2022-08-19T07:27:13;25.15;;;6.15;;
49384;SDS011;36795;45.028;38.968;2022-08-19T07:29:59;22.90;;;7.05;;
49384;SDS011;36795;45.028;38.968;2022-08-19T07:32:45;23.65;;;7.78;;
49384;SDS011;36795;45.028;38.968;2022-08-19T07:35:31;23.05;;;6.40;;
49384;SDS011;36795;45.028;38.968;2022-08-19T07:38:18;24.73;;;7.55;;
49384;SDS011;36795;45.028;38.968;2022-08-19T07:41:03;22.42;;;6.45;;
49384;SDS011;36795;45.028;38.968;2022-08-19T07:43:50;25.35;;;7.37;;
49384;SDS011;36795;45.028;38.968;2022-08-19T07:46:38;19.77;;;5.87;;
49384;SDS011;36795;45.028;38.968;2022-08-19T07:49:26;20.75;;;5.72;;
49384;SDS011;36795;45.028;38.968;2022-08-19T07:52:12;22.27;;;5.30;;
49384;SDS011;36795;45.028;38.968;2022-08-19T07:54:58;26.55;;;5.70;;
49384;SDS011;36795;45.028;38.968;2022-08-19T07:57:48;23.62;;;5.90;;
49384;SDS011;36795;45.028;38.968;2022-08-19T08:00:34;19.55;;;5.37;;
49384;SDS011;36795;45.028;38.968;2022-08-19T08:03:21;22.77;;;5.70;;
49384;SDS011;36795;45.028;38.968;2022-08-19T08:06:31;22.20;;;5.87;;
49384;SDS011;36795;45.028;38.968;2022-08-19T08:09:37;24.45;;;7.45;;
49384;SDS011;36795;45.028;38.968;2022-08-19T08:12:26;24.55;;;6.68;;
49384;SDS011;36795;45.028;38.968;2022-08-19T08:15:15;29.73;;;10.27;;
49384;SDS011;36795;45.028;38.968;2022-08-19T08:18:01;23.12;;;6.95;;
49384;SDS011;36795;45.028;38.968;2022-08-19T08:20:48;21.62;;;9.70;;
49384;SDS011;36795;45.028;38.968;2022-08-19T08:23:34;29.30;;;12.93;;
49384;SDS011;36795;45.028;38.968;2022-08-19T08:26:21;25.12;;;7.57;;
49384;SDS011;36795;45.028;38.968;2022-08-19T08:29:07;19.08;;;5.12;;
49384;SDS011;36795;45.028;38.968;2022-08-19T08:31:57;25.40;;;6.53;;
49384;SDS011;36795;45.028;38.968;2022-08-19T08:34:43;22.50;;;7.10;;
49384;SDS011;36795;45.028;38.968;2022-08-19T08:37:29;31.45;;;14.70;;
49384;SDS011;36795;45.028;38.968;2022-08-19T08:40:34;25.35;;;10.25;;
49384;SDS011;36795;45.028;38.968;2022-08-19T08:43:37;23.02;;;6.62;;
49384;SDS011;36795;45.028;38.968;2022-08-19T08:46:39;27.58;;;8.48;;
49384;SDS011;36795;45.028;38.968;2022-08-19T08:49:41;26.58;;;7.07;;
49384;SDS011;36795;45.028;38.968;2022-08-19T08:52:35;25.37;;;7.07;;
49384;SDS011;36795;45.028;38.968;2022-08-19T08:55:28;24.75;;;9.77;;
49384;SDS011;36795;45.028;38.968;2022-08-19T08:58:17;23.73;;;7.30;;
49384;SDS011;36795;45.028;38.968;2022-08-19T09:01:16;22.60;;;6.63;;
49384;SDS011;36795;45.028;38.968;2022-08-19T09:04:04;24.08;;;6.62;;
49384;SDS011;36795;45.028;38.968;2022-08-19T09:10:10;23.80;;;6.32;;
49384;SDS011;36795;45.028;38.968;2022-08-19T09:16:20;21.85;;;6.87;;
49384;SDS011;36795;45.028;38.968;2022-08-19T09:19:12;36.47;;;12.68;;
49384;SDS011;36795;45.028;38.968;2022-08-19T09:21:58;20.37;;;5.47;;
49384;SDS011;36795;45.028;38.968;2022-08-19T09:24:46;38.35;;;15.27;;
49384;SDS011;36795;45.028;38.968;2022-08-19T09:27:32;23.23;;;6.47;;
49384;SDS011;36795;45.028;38.968;2022-08-19T09:30:20;21.77;;;6.05;;
49384;SDS011;36795;45.028;38.968;2022-08-19T09:33:09;20.60;;;5.32;;
49384;SDS011;36795;45.028;38.968;2022-08-19T09:36:06;19.65;;;5.07;;
49384;SDS011;36795;45.028;38.968;2022-08-19T09:38:55;16.92;;;4.97;;
49384;SDS011;36795;45.028;38.968;2022-08-19T09:41:41;19.92;;;5.32;;
49384;SDS011;36795;45.028;38.968;2022-08-19T09:44:27;17.17;;;5.47;;
49384;SDS011;36795;45.028;38.968;2022-08-19T09:47:13;23.42;;;5.85;;
49384;SDS011;36795;45.028;38.968;2022-08-19T09:50:00;21.12;;;5.35;;
49384;SDS011;36795;45.028;38.968;2022-08-19T09:52:46;23.80;;;5.05;;
49384;SDS011;36795;45.028;38.968;2022-08-19T09:55:32;20.42;;;5.53;;
49384;SDS011;36795;45.028;38.968;2022-08-19T09:58:18;27.85;;;7.72;;
49384;SDS011;36795;45.028;38.968;2022-08-19T10:01:05;29.83;;;10.82;;
49384;SDS011;36795;45.028;38.968;2022-08-19T10:03:53;23.38;;;7.97;;
49384;SDS011;36795;45.028;38.968;2022-08-19T10:06:41;22.67;;;6.25;;
49384;SDS011;36795;45.028;38.968;2022-08-19T10:09:27;24.85;;;8.07;;
49384;SDS011;36795;45.028;38.968;2022-08-19T10:12:13;22.67;;;7.45;;
49384;SDS011;36795;45.028;38.968;2022-08-19T10:15:00;19.48;;;6.30;;
49384;SDS011;36795;45.028;38.968;2022-08-19T10:17:46;21.35;;;5.62;;
49384;SDS011;36795;45.028;38.968;2022-08-19T10:20:33;18.05;;;5.60;;
49384;SDS011;36795;45.028;38.968;2022-08-19T10:23:20;29.35;;;12.13;;
49384;SDS011;36795;45.028;38.968;2022-08-19T10:26:07;19.02;;;5.80;;
49384;SDS011;36795;45.028;38.968;2022-08-19T10:28:53;20.45;;;6.47;;
49384;SDS011;36795;45.028;38.968;2022-08-19T10:31:40;17.37;;;6.32;;
49384;SDS011;36795;45.028;38.968;2022-08-19T10:34:26;18.62;;;5.72;;
49384;SDS011;36795;45.028;38.968;2022-08-19T10:37:14;20.42;;;6.82;;
49384;SDS011;36795;45.028;38.968;2022-08-19T10:40:05;18.35;;;5.78;;
49384;SDS011;36795;45.028;38.968;2022-08-19T10:42:53;18.42;;;5.55;;
49384;SDS011;36795;45.028;38.968;2022-08-19T10:45:40;18.25;;;5.85;;
49384;SDS011;36795;45.028;38.968;2022-08-19T10:48:27;21.85;;;5.78;;
49384;SDS011;36795;45.028;38.968;2022-08-19T10:51:13;20.80;;;5.68;;
49384;SDS011;36795;45.028;38.968;2022-08-19T10:54:19;20.52;;;6.32;;
49384;SDS011;36795;45.028;38.968;2022-08-19T10:57:05;25.62;;;6.50;;
49384;SDS011;36795;45.028;38.968;2022-08-19T10:59:51;25.10;;;6.03;;
49384;SDS011;36795;45.028;38.968;2022-08-19T11:02:37;21.05;;;6.55;;
49384;SDS011;36795;45.028;38.968;2022-08-19T11:05:24;24.75;;;7.20;;
49384;SDS011;36795;45.028;38.968;2022-08-19T11:08:10;24.02;;;5.85;;
49384;SDS011;36795;45.028;38.968;2022-08-19T11:10:59;22.77;;;6.37;;
49384;SDS011;36795;45.028;38.968;2022-08-19T11:13:46;20.27;;;5.68;;
49384;SDS011;36795;45.028;38.968;2022-08-19T11:16:35;19.90;;;5.43;;
49384;SDS011;36795;45.028;38.968;2022-08-19T11:19:22;20.60;;;5.12;;
49384;SDS011;36795;45.028;38.968;2022-08-19T11:22:09;25.50;;;5.22;;
49384;SDS011;36795;45.028;38.968;2022-08-19T11:24:55;19.15;;;4.82;;
49384;SDS011;36795;45.028;38.968;2022-08-19T11:27:41;19.05;;;4.65;;
49384;SDS011;36795;45.028;38.968;2022-08-19T11:30:29;20.90;;;5.00;;
49384;SDS011;36795;45.028;38.968;2022-08-19T11:33:15;20.60;;;4.87;;
49384;SDS011;36795;45.028;38.968;2022-08-19T11:36:01;18.62;;;4.85;;
49384;SDS011;36795;45.028;38.968;2022-08-19T11:38:48;23.50;;;5.25;;
49384;SDS011;36795;45.028;38.968;2022-08-19T11:41:35;23.65;;;6.12;;
49384;SDS011;36795;45.028;38.968;2022-08-19T11:44:21;24.35;;;6.53;;
49384;SDS011;36795;45.028;38.968;2022-08-19T11:47:07;21.05;;;5.05;;
49384;SDS011;36795;45.028;38.968;2022-08-19T11:49:53;21.83;;;4.78;;
49384;SDS011;36795;45.028;38.968;2022-08-19T11:52:39;23.40;;;4.80;;
49384;SDS011;36795;45.028;38.968;2022-08-19T11:55:26;24.92;;;5.65;;
49384;SDS011;36795;45.028;38.968;2022-08-19T11:58:12;27.37;;;5.25;;
49384;SDS011;36795;45.028;38.968;2022-08-19T12:00:59;22.00;;;5.18;;
49384;SDS011;36795;45.028;38.968;2022-08-19T12:03:47;20.52;;;5.28;;
49384;SDS011;36795;45.028;38.968;2022-08-19T12:06:36;23.45;;;5.18;;
49384;SDS011;36795;45.028;38.968;2022-08-19T12:09:25;22.02;;;5.62;;
49384;SDS011;36795;45.028;38.968;2022-08-19T12:12:11;24.87;;;8.07;;
49384;SDS011;36795;45.028;38.968;2022-08-19T12:14:57;24.80;;;5.43;;
49384;SDS011;36795;45.028;38.968;2022-08-19T12:17:43;25.77;;;5.43;;
49384;SDS011;36795;45.028;38.968;2022-08-19T12:20:30;20.70;;;4.82;;
49384;SDS011;36795;45.028;38.968;2022-08-19T12:23:19;18.67;;;4.65;;
49384;SDS011;36795;45.028;38.968;2022-08-19T12:26:06;25.08;;;6.10;;
49384;SDS011;36795;45.028;38.968;2022-08-19T12:28:52;20.90;;;4.85;;
49384;SDS011;36795;45.028;38.968;2022-08-19T12:31:38;19.33;;;4.65;;
49384;SDS011;36795;45.028;38.968;2022-08-19T12:34:25;17.37;;;4.47;;
49384;SDS011;36795;45.028;38.968;2022-08-19T12:37:11;19.35;;;4.95;;
49384;SDS011;36795;45.028;38.968;2022-08-19T12:39:57;22.73;;;6.07;;
49384;SDS011;36795;45.028;38.968;2022-08-19T12:42:44;22.77;;;5.68;;
49384;SDS011;36795;45.028;38.968;2022-08-19T12:45:30;19.60;;;5.05;;
49384;SDS011;36795;45.028;38.968;2022-08-19T12:48:16;21.25;;;5.53;;
49384;SDS011;36795;45.028;38.968;2022-08-19T12:51:06;20.77;;;5.22;;
49384;SDS011;36795;45.028;38.968;2022-08-19T12:53:57;20.92;;;5.55;;
49384;SDS011;36795;45.028;38.968;2022-08-19T12:56:43;22.27;;;5.40;;
49384;SDS011;36795;45.028;38.968;2022-08-19T12:59:30;25.73;;;6.90;;
49384;SDS011;36795;45.028;38.968;2022-08-19T13:02:15;26.73;;;7.85;;
49384;SDS011;36795;45.028;38.968;2022-08-19T13:05:02;25.30;;;6.12;;
49384;SDS011;36795;45.028;38.968;2022-08-19T13:07:50;27.40;;;6.03;;
49384;SDS011;36795;45.028;38.968;2022-08-19T13:10:37;20.55;;;5.75;;
49384;SDS011;36795;45.028;38.968;2022-08-19T13:13:23;20.12;;;5.03;;
49384;SDS011;36795;45.028;38.968;2022-08-19T13:16:11;23.92;;;5.35;;
49384;SDS011;36795;45.028;38.968;2022-08-19T13:18:58;23.67;;;5.10;;
49384;SDS011;36795;45.028;38.968;2022-08-19T13:21:44;23.55;;;5.53;;
49384;SDS011;36795;45.028;38.968;2022-08-19T13:24:33;26.77;;;6.40;;
49384;SDS011;36795;45.028;38.968;2022-08-19T13:27:21;25.62;;;5.35;;
49384;SDS011;36795;45.028;38.968;2022-08-19T13:30:08;25.08;;;5.78;;
49384;SDS011;36795;45.028;38.968;2022-08-19T13:33:15;28.17;;;5.72;;
49384;SDS011;36795;45.028;38.968;2022-08-19T13:36:01;25.30;;;6.10;;
49384;SDS011;36795;45.028;38.968;2022-08-19T13:38:49;29.58;;;5.95;;
49384;SDS011;36795;45.028;38.968;2022-08-19T13:41:37;27.10;;;5.78;;
49384;SDS011;36795;45.028;38.968;2022-08-19T13:44:28;24.45;;;5.22;;
49384;SDS011;36795;45.028;38.968;2022-08-19T13:47:14;30.55;;;6.10;;
49384;SDS011;36795;45.028;38.968;2022-08-19T13:50:04;24.87;;;5.15;;
49384;SDS011;36795;45.028;38.968;2022-08-19T13:52:50;23.50;;;5.35;;
49384;SDS011;36795;45.028;38.968;2022-08-19T13:55:37;29.48;;;6.20;;
49384;SDS011;36795;45.028;38.968;2022-08-19T13:58:24;24.50;;;5.82;;
49384;SDS011;36795;45.028;38.968;2022-08-19T14:01:10;28.20;;;5.82;;
49384;SDS011;36795;45.028;38.968;2022-08-19T14:03:56;26.02;;;5.62;;
49384;SDS011;36795;45.028;38.968;2022-08-19T14:06:42;25.50;;;6.70;;
49384;SDS011;36795;45.028;38.968;2022-08-19T14:09:29;19.60;;;5.70;;
49384;SDS011;36795;45.028;38.968;2022-08-19T14:12:18;25.40;;;5.65;;
49384;SDS011;36795;45.028;38.968;2022-08-19T14:15:08;22.10;;;5.45;;
49384;SDS011;36795;45.028;38.968;2022-08-19T14:17:55;21.35;;;5.82;;
49384;SDS011;36795;45.028;38.968;2022-08-19T14:20:41;24.87;;;8.55;;
49384;SDS011;36795;45.028;38.968;2022-08-19T14:23:28;16.37;;;4.95;;
49384;SDS011;36795;45.028;38.968;2022-08-19T14:26:15;21.40;;;5.35;;
49384;SDS011;36795;45.028;38.968;2022-08-19T14:29:02;24.73;;;6.20;;
49384;SDS011;36795;45.028;38.968;2022-08-19T14:31:48;25.88;;;5.25;;
49384;SDS011;36795;45.028;38.968;2022-08-19T14:34:34;21.60;;;5.03;;
49384;SDS011;36795;45.028;38.968;2022-08-19T14:37:22;19.27;;;4.90;;
49384;SDS011;36795;45.028;38.968;2022-08-19T14:40:08;21.70;;;5.30;;
49384;SDS011;36795;45.028;38.968;2022-08-19T14:42:56;21.50;;;5.28;;
49384;SDS011;36795;45.028;38.968;2022-08-19T14:45:45;21.90;;;5.30;;
49384;SDS011;36795;45.028;38.968;2022-08-19T14:48:32;21.58;;;5.18;;
49384;SDS011;36795;45.028;38.968;2022-08-19T14:51:18;20.05;;;5.37;;
49384;SDS011;36795;45.028;38.968;2022-08-19T14:54:05;21.27;;;5.35;;
49384;SDS011;36795;45.028;38.968;2022-08-19T14:56:50;19.75;;;5.12;;
49384;SDS011;36795;45.028;38.968;2022-08-19T14:59:37;24.52;;;5.35;;
49384;SDS011;36795;45.028;38.968;2022-08-19T15:02:23;24.87;;;6.53;;
49384;SDS011;36795;45.028;38.968;2022-08-19T15:05:09;26.62;;;5.55;;
49384;SDS011;36795;45.028;38.968;2022-08-19T15:07:56;24.48;;;5.85;;
49384;SDS011;36795;45.028;38.968;2022-08-19T15:10:42;20.17;;;5.03;;
49384;SDS011;36795;45.028;38.968;2022-08-19T15:13:28;20.15;;;5.82;;
49384;SDS011;36795;45.028;38.968;2022-08-19T15:16:15;26.65;;;7.07;;
49384;SDS011;36795;45.028;38.968;2022-08-19T15:19:02;22.95;;;6.05;;
49384;SDS011;36795;45.028;38.968;2022-08-19T15:21:49;29.33;;;6.60;;
49384;SDS011;36795;45.028;38.968;2022-08-19T15:24:35;24.00;;;6.12;;
49384;SDS011;36795;45.028;38.968;2022-08-19T15:27:23;22.55;;;6.20;;
49384;SDS011;36795;45.028;38.968;2022-08-19T15:30:09;27.08;;;8.27;;
49384;SDS011;36795;45.028;38.968;2022-08-19T15:32:57;23.92;;;6.07;;
49384;SDS011;36795;45.028;38.968;2022-08-19T15:35:43;26.17;;;6.62;;
49384;SDS011;36795;45.028;38.968;2022-08-19T15:38:29;28.50;;;6.57;;
49384;SDS011;36795;45.028;38.968;2022-08-19T15:41:19;27.40;;;5.65;;
49384;SDS011;36795;45.028;38.968;2022-08-19T15:44:09;22.77;;;5.23;;
49384;SDS011;36795;45.028;38.968;2022-08-19T15:46:57;26.80;;;6.07;;
49384;SDS011;36795;45.028;38.968;2022-08-19T15:49:43;22.48;;;5.20;;
49384;SDS011;36795;45.028;38.968;2022-08-19T15:52:29;22.08;;;6.12;;
49384;SDS011;36795;45.028;38.968;2022-08-19T15:55:22;17.80;;;4.97;;
49384;SDS011;36795;45.028;38.968;2022-08-19T15:58:12;21.12;;;5.57;;
49384;SDS011;36795;45.028;38.968;2022-08-19T16:01:19;27.05;;;5.80;;
49384;SDS011;36795;45.028;38.968;2022-08-19T16:04:24;25.62;;;7.20;;
49384;SDS011;36795;45.028;38.968;2022-08-19T16:07:28;27.52;;;6.78;;
49384;SDS011;36795;45.028;38.968;2022-08-19T16:10:14;26.92;;;7.57;;
49384;SDS011;36795;45.028;38.968;2022-08-19T16:13:01;30.37;;;8.15;;
49384;SDS011;36795;45.028;38.968;2022-08-19T16:15:47;21.67;;;6.30;;
49384;SDS011;36795;45.028;38.968;2022-08-19T16:18:33;24.55;;;7.82;;
49384;SDS011;36795;45.028;38.968;2022-08-19T16:21:23;24.75;;;7.00;;
49384;SDS011;36795;45.028;38.968;2022-08-19T16:24:12;26.40;;;6.90;;
49384;SDS011;36795;45.028;38.968;2022-08-19T16:26:59;25.98;;;6.95;;